sensor_id;sensor_type;location;lat;lon;timestamp;P1;durP1;ratioP1;P2;durP2;ratioP2
68375;SDS011;55318;52.068;5.188;2023-02-11T00:00:14;14.5;;;3.8;;
68375;SDS011;55318;52.068;5.188;2023-02-11T00:03:27;9.1;;;2.7;;
68375;SDS011;55318;52.068;5.188;2023-02-11T00:05:04;9.81;;;3.2;;
68375;SDS011;55318;52.068;5.188;2023-02-11T00:06:41;8.4;;;2.5;;
68375;SDS011;55318;52.068;5.188;2023-02-11T00:09:53;10.1;;;3.9;;
68375;SDS011;55318;52.068;5.188;2023-02-11T00:11:29;8.0;;;2.6;;
68375;SDS011;55318;52.068;5.188;2023-02-11T00:13:05;13.0;;;2.21;;
68375;SDS011;55318;52.068;5.188;2023-02-11T00:14:42;8.71;;;2.21;;
68375;SDS011;55318;52.068;5.188;2023-02-11T00:17:56;8.6;;;3.1;;
68375;SDS011;55318;52.068;5.188;2023-02-11T00:19:32;5.6;;;2.31;;
68375;SDS011;55318;52.068;5.188;2023-02-11T00:21:09;11.7;;;2.4;;
68375;SDS011;55318;52.068;5.188;2023-02-11T00:24:24;9.81;;;2.7;;
68375;SDS011;55318;52.068;5.188;2023-02-11T00:26:00;6.9;;;1.8;;
68375;SDS011;55318;52.068;5.188;2023-02-11T00:27:37;8.81;;;2.6;;
68375;SDS011;55318;52.068;5.188;2023-02-11T00:30:53;11.1;;;2.4;;
68375;SDS011;55318;52.068;5.188;2023-02-11T00:32:29;7.1;;;2.21;;
68375;SDS011;55318;52.068;5.188;2023-02-11T00:34:06;7.0;;;2.5;;
68375;SDS011;55318;52.068;5.188;2023-02-11T00:35:42;11.5;;;2.7;;
68375;SDS011;55318;52.068;5.188;2023-02-11T00:38:55;6.4;;;3.0;;
68375;SDS011;55318;52.068;5.188;2023-02-11T00:40:32;4.2;;;1.9;;
68375;SDS011;55318;52.068;5.188;2023-02-11T00:42:09;11.1;;;2.4;;
68375;SDS011;55318;52.068;5.188;2023-02-11T00:45:27;8.5;;;2.31;;
68375;SDS011;55318;52.068;5.188;2023-02-11T00:47:04;7.3;;;2.6;;
68375;SDS011;55318;52.068;5.188;2023-02-11T00:48:40;15.1;;;4.5;;
68375;SDS011;55318;52.068;5.188;2023-02-11T00:50:17;5.6;;;2.0;;
68375;SDS011;55318;52.068;5.188;2023-02-11T00:55:08;11.8;;;3.4;;
68375;SDS011;55318;52.068;5.188;2023-02-11T00:56:44;7.3;;;2.8;;
68375;SDS011;55318;52.068;5.188;2023-02-11T00:59:57;10.9;;;3.4;;
68375;SDS011;55318;52.068;5.188;2023-02-11T01:01:34;8.71;;;2.7;;
68375;SDS011;55318;52.068;5.188;2023-02-11T01:03:10;7.6;;;1.8;;
68375;SDS011;55318;52.068;5.188;2023-02-11T01:06:23;9.4;;;2.1;;
68375;SDS011;55318;52.068;5.188;2023-02-11T01:07:59;8.2;;;2.9;;
68375;SDS011;55318;52.068;5.188;2023-02-11T01:09:36;7.8;;;2.31;;
68375;SDS011;55318;52.068;5.188;2023-02-11T01:11:15;10.5;;;3.3;;
68375;SDS011;55318;52.068;5.188;2023-02-11T01:14:29;9.9;;;2.8;;
68375;SDS011;55318;52.068;5.188;2023-02-11T01:16:06;6.5;;;4.1;;
68375;SDS011;55318;52.068;5.188;2023-02-11T01:17:45;11.6;;;2.7;;
68375;SDS011;55318;52.068;5.188;2023-02-11T01:20:57;3.7;;;1.7;;
68375;SDS011;55318;52.068;5.188;2023-02-11T01:22:36;7.8;;;2.7;;
68375;SDS011;55318;52.068;5.188;2023-02-11T01:24:12;15.3;;;1.9;;
68375;SDS011;55318;52.068;5.188;2023-02-11T01:25:49;9.4;;;2.9;;
68375;SDS011;55318;52.068;5.188;2023-02-11T01:29:02;11.7;;;2.0;;
68375;SDS011;55318;52.068;5.188;2023-02-11T01:30:38;8.2;;;2.0;;
68375;SDS011;55318;52.068;5.188;2023-02-11T01:32:14;6.4;;;2.6;;
68375;SDS011;55318;52.068;5.188;2023-02-11T01:35:26;9.5;;;2.0;;
68375;SDS011;55318;52.068;5.188;2023-02-11T01:37:03;9.4;;;2.8;;
68375;SDS011;55318;52.068;5.188;2023-02-11T01:38:39;6.5;;;2.8;;
68375;SDS011;55318;52.068;5.188;2023-02-11T01:41:53;10.3;;;3.2;;
68375;SDS011;55318;52.068;5.188;2023-02-11T01:43:30;5.4;;;1.9;;
68375;SDS011;55318;52.068;5.188;2023-02-11T01:46:11;7.6;;;2.5;;
68375;SDS011;55318;52.068;5.188;2023-02-11T01:48:44;10.8;;;3.0;;
68375;SDS011;55318;52.068;5.188;2023-02-11T01:50:25;5.5;;;2.1;;
68375;SDS011;55318;52.068;5.188;2023-02-11T01:52:03;6.7;;;2.31;;
68375;SDS011;55318;52.068;5.188;2023-02-11T01:57:56;7.6;;;2.7;;
68375;SDS011;55318;52.068;5.188;2023-02-11T01:59:40;6.0;;;2.7;;
68375;SDS011;55318;52.068;5.188;2023-02-11T02:01:26;7.2;;;2.1;;
68375;SDS011;55318;52.068;5.188;2023-02-11T02:04:51;5.3;;;2.1;;
68375;SDS011;55318;52.068;5.188;2023-02-11T02:06:39;6.4;;;2.8;;
68375;SDS011;55318;52.068;5.188;2023-02-11T02:08:24;11.6;;;3.1;;
68375;SDS011;55318;52.068;5.188;2023-02-11T02:10:12;14.2;;;3.0;;
68375;SDS011;55318;52.068;5.188;2023-02-11T02:12:02;11.8;;;2.5;;
68375;SDS011;55318;52.068;5.188;2023-02-11T02:15:19;10.5;;;3.4;;
68375;SDS011;55318;52.068;5.188;2023-02-11T02:17:00;8.9;;;2.31;;
68375;SDS011;55318;52.068;5.188;2023-02-11T02:18:38;8.9;;;3.0;;
68375;SDS011;55318;52.068;5.188;2023-02-11T02:20:36;5.5;;;2.21;;
68375;SDS011;55318;52.068;5.188;2023-02-11T02:23:19;6.5;;;2.0;;
68375;SDS011;55318;52.068;5.188;2023-02-11T02:25:17;4.5;;;2.21;;
68375;SDS011;55318;52.068;5.188;2023-02-11T02:27:14;8.9;;;2.5;;
68375;SDS011;55318;52.068;5.188;2023-02-11T02:29:28;7.1;;;2.8;;
68375;SDS011;55318;52.068;5.188;2023-02-11T02:33:02;8.4;;;3.2;;
68375;SDS011;55318;52.068;5.188;2023-02-11T02:35:01;5.6;;;2.5;;
68375;SDS011;55318;52.068;5.188;2023-02-11T02:38:35;9.71;;;3.1;;
68375;SDS011;55318;52.068;5.188;2023-02-11T02:40:17;7.5;;;2.4;;
68375;SDS011;55318;52.068;5.188;2023-02-11T02:41:58;7.2;;;2.5;;
68375;SDS011;55318;52.068;5.188;2023-02-11T02:43:35;7.2;;;2.21;;
68375;SDS011;55318;52.068;5.188;2023-02-11T02:45:16;7.3;;;3.4;;
68375;SDS011;55318;52.068;5.188;2023-02-11T02:48:32;6.6;;;2.8;;
68375;SDS011;55318;52.068;5.188;2023-02-11T02:50:09;6.6;;;2.8;;
68375;SDS011;55318;52.068;5.188;2023-02-11T02:52:11;7.4;;;2.5;;
68375;SDS011;55318;52.068;5.188;2023-02-11T02:54:02;6.4;;;2.5;;
68375;SDS011;55318;52.068;5.188;2023-02-11T02:56:02;6.4;;;2.4;;
68375;SDS011;55318;52.068;5.188;2023-02-11T02:59:45;7.6;;;2.4;;
68375;SDS011;55318;52.068;5.188;2023-02-11T03:01:41;11.4;;;2.7;;
68375;SDS011;55318;52.068;5.188;2023-02-11T03:03:27;7.3;;;2.4;;
68375;SDS011;55318;52.068;5.188;2023-02-11T03:05:13;8.9;;;2.6;;
68375;SDS011;55318;52.068;5.188;2023-02-11T03:06:56;5.5;;;1.8;;
68375;SDS011;55318;52.068;5.188;2023-02-11T03:08:42;8.2;;;3.3;;
68375;SDS011;55318;52.068;5.188;2023-02-11T03:10:24;8.31;;;2.7;;
68375;SDS011;55318;52.068;5.188;2023-02-11T03:13:43;8.31;;;2.8;;
68375;SDS011;55318;52.068;5.188;2023-02-11T03:15:22;7.8;;;3.3;;
68375;SDS011;55318;52.068;5.188;2023-02-11T03:17:03;10.6;;;3.2;;
68375;SDS011;55318;52.068;5.188;2023-02-11T03:20:27;9.21;;;3.1;;
68375;SDS011;55318;52.068;5.188;2023-02-11T03:22:10;9.31;;;2.8;;
68375;SDS011;55318;52.068;5.188;2023-02-11T03:23:53;7.5;;;3.0;;
68375;SDS011;55318;52.068;5.188;2023-02-11T03:25:33;7.2;;;3.0;;
68375;SDS011;55318;52.068;5.188;2023-02-11T03:27:16;11.4;;;3.4;;
68375;SDS011;55318;52.068;5.188;2023-02-11T03:30:44;7.5;;;2.6;;
68375;SDS011;55318;52.068;5.188;2023-02-11T03:32:28;14.1;;;3.4;;
68375;SDS011;55318;52.068;5.188;2023-02-11T03:34:12;11.1;;;3.9;;
68375;SDS011;55318;52.068;5.188;2023-02-11T03:35:54;11.2;;;3.2;;
68375;SDS011;55318;52.068;5.188;2023-02-11T03:37:36;6.5;;;3.5;;
68375;SDS011;55318;52.068;5.188;2023-02-11T03:41:00;11.5;;;3.5;;
68375;SDS011;55318;52.068;5.188;2023-02-11T03:42:40;8.4;;;3.1;;
68375;SDS011;55318;52.068;5.188;2023-02-11T03:44:20;7.6;;;3.9;;
68375;SDS011;55318;52.068;5.188;2023-02-11T03:46:01;12.2;;;2.9;;
68375;SDS011;55318;52.068;5.188;2023-02-11T03:49:22;6.3;;;3.4;;
68375;SDS011;55318;52.068;5.188;2023-02-11T03:51:04;8.2;;;3.4;;
68375;SDS011;55318;52.068;5.188;2023-02-11T03:52:43;8.71;;;3.9;;
68375;SDS011;55318;52.068;5.188;2023-02-11T03:54:23;7.0;;;2.9;;
68375;SDS011;55318;52.068;5.188;2023-02-11T03:57:46;11.8;;;3.6;;
68375;SDS011;55318;52.068;5.188;2023-02-11T03:59:23;10.6;;;3.4;;
68375;SDS011;55318;52.068;5.188;2023-02-11T04:01:01;10.9;;;3.9;;
68375;SDS011;55318;52.068;5.188;2023-02-11T04:02:41;8.71;;;4.2;;
68375;SDS011;55318;52.068;5.188;2023-02-11T04:05:55;9.21;;;4.1;;
68375;SDS011;55318;52.068;5.188;2023-02-11T04:07:31;12.5;;;4.5;;
68375;SDS011;55318;52.068;5.188;2023-02-11T04:09:08;7.8;;;4.0;;
68375;SDS011;55318;52.068;5.188;2023-02-11T04:12:20;8.31;;;3.5;;
68375;SDS011;55318;52.068;5.188;2023-02-11T04:13:56;7.0;;;3.6;;
68375;SDS011;55318;52.068;5.188;2023-02-11T04:15:33;8.6;;;3.8;;
68375;SDS011;55318;52.068;5.188;2023-02-11T04:18:46;8.1;;;3.4;;
68375;SDS011;55318;52.068;5.188;2023-02-11T04:20:22;14.2;;;4.7;;
68375;SDS011;55318;52.068;5.188;2023-02-11T04:21:58;18.61;;;3.7;;
68375;SDS011;55318;52.068;5.188;2023-02-11T04:23:35;9.5;;;4.0;;
68375;SDS011;55318;52.068;5.188;2023-02-11T04:26:49;12.0;;;3.5;;
68375;SDS011;55318;52.068;5.188;2023-02-11T04:28:28;13.5;;;3.9;;
68375;SDS011;55318;52.068;5.188;2023-02-11T04:30:05;9.1;;;4.3;;
68375;SDS011;55318;52.068;5.188;2023-02-11T04:33:21;10.0;;;3.3;;
68375;SDS011;55318;52.068;5.188;2023-02-11T04:34:59;10.0;;;3.3;;
68375;SDS011;55318;52.068;5.188;2023-02-11T04:36:35;12.9;;;3.6;;
68375;SDS011;55318;52.068;5.188;2023-02-11T04:39:48;8.9;;;3.3;;
68375;SDS011;55318;52.068;5.188;2023-02-11T04:41:24;8.9;;;3.3;;
68375;SDS011;55318;52.068;5.188;2023-02-11T04:43:00;9.71;;;4.7;;
68375;SDS011;55318;52.068;5.188;2023-02-11T04:44:37;12.0;;;5.5;;
68375;SDS011;55318;52.068;5.188;2023-02-11T04:47:49;14.7;;;5.5;;
68375;SDS011;55318;52.068;5.188;2023-02-11T04:49:25;10.6;;;5.2;;
68375;SDS011;55318;52.068;5.188;2023-02-11T04:51:01;11.9;;;5.6;;
68375;SDS011;55318;52.068;5.188;2023-02-11T04:54:15;10.5;;;4.0;;
68375;SDS011;55318;52.068;5.188;2023-02-11T04:55:52;10.0;;;4.5;;
68375;SDS011;55318;52.068;5.188;2023-02-11T04:57:28;9.4;;;4.41;;
68375;SDS011;55318;52.068;5.188;2023-02-11T05:00:42;12.4;;;5.7;;
68375;SDS011;55318;52.068;5.188;2023-02-11T05:02:18;14.6;;;4.5;;
68375;SDS011;55318;52.068;5.188;2023-02-11T05:03:54;12.4;;;4.8;;
68375;SDS011;55318;52.068;5.188;2023-02-11T05:05:32;9.5;;;4.41;;
68375;SDS011;55318;52.068;5.188;2023-02-11T05:08:44;9.9;;;4.2;;
68375;SDS011;55318;52.068;5.188;2023-02-11T05:10:20;13.1;;;4.7;;
68375;SDS011;55318;52.068;5.188;2023-02-11T05:11:56;12.4;;;4.8;;
68375;SDS011;55318;52.068;5.188;2023-02-11T05:15:09;13.9;;;4.2;;
68375;SDS011;55318;52.068;5.188;2023-02-11T05:16:45;13.0;;;5.2;;
68375;SDS011;55318;52.068;5.188;2023-02-11T05:18:21;9.5;;;4.5;;
68375;SDS011;55318;52.068;5.188;2023-02-11T05:21:34;10.7;;;4.91;;
68375;SDS011;55318;52.068;5.188;2023-02-11T05:23:10;11.4;;;5.6;;
68375;SDS011;55318;52.068;5.188;2023-02-11T05:24:46;10.8;;;4.2;;
68375;SDS011;55318;52.068;5.188;2023-02-11T05:26:23;10.0;;;5.5;;
68375;SDS011;55318;52.068;5.188;2023-02-11T05:29:37;11.6;;;4.5;;
68375;SDS011;55318;52.068;5.188;2023-02-11T05:31:13;12.0;;;4.8;;
68375;SDS011;55318;52.068;5.188;2023-02-11T05:32:49;12.3;;;5.9;;
68375;SDS011;55318;52.068;5.188;2023-02-11T05:36:04;13.0;;;4.61;;
68375;SDS011;55318;52.068;5.188;2023-02-11T05:37:43;12.3;;;5.3;;
68375;SDS011;55318;52.068;5.188;2023-02-11T05:39:19;16.61;;;4.8;;
68375;SDS011;55318;52.068;5.188;2023-02-11T05:42:32;13.8;;;5.7;;
68375;SDS011;55318;52.068;5.188;2023-02-11T05:44:09;18.61;;;5.0;;
68375;SDS011;55318;52.068;5.188;2023-02-11T05:45:45;10.1;;;4.2;;
68375;SDS011;55318;52.068;5.188;2023-02-11T05:47:21;13.4;;;6.0;;
68375;SDS011;55318;52.068;5.188;2023-02-11T05:50:33;10.9;;;5.0;;
68375;SDS011;55318;52.068;5.188;2023-02-11T05:52:09;12.2;;;5.8;;
68375;SDS011;55318;52.068;5.188;2023-02-11T05:53:45;12.6;;;5.5;;
68375;SDS011;55318;52.068;5.188;2023-02-11T05:56:59;9.81;;;5.11;;
68375;SDS011;55318;52.068;5.188;2023-02-11T05:58:35;12.3;;;4.8;;
68375;SDS011;55318;52.068;5.188;2023-02-11T06:00:13;11.8;;;5.3;;
68375;SDS011;55318;52.068;5.188;2023-02-11T06:03:26;13.8;;;5.0;;
68375;SDS011;55318;52.068;5.188;2023-02-11T06:05:03;14.7;;;5.4;;
68375;SDS011;55318;52.068;5.188;2023-02-11T06:06:39;15.2;;;5.7;;
68375;SDS011;55318;52.068;5.188;2023-02-11T06:08:15;12.2;;;5.8;;
68375;SDS011;55318;52.068;5.188;2023-02-11T06:11:27;10.9;;;5.11;;
68375;SDS011;55318;52.068;5.188;2023-02-11T06:13:03;15.4;;;5.11;;
68375;SDS011;55318;52.068;5.188;2023-02-11T06:14:40;11.8;;;5.11;;
68375;SDS011;55318;52.068;5.188;2023-02-11T06:17:52;16.8;;;5.4;;
68375;SDS011;55318;52.068;5.188;2023-02-11T06:19:28;11.8;;;5.11;;
68375;SDS011;55318;52.068;5.188;2023-02-11T06:21:06;14.7;;;5.2;;
68375;SDS011;55318;52.068;5.188;2023-02-11T06:24:19;16.3;;;6.4;;
68375;SDS011;55318;52.068;5.188;2023-02-11T06:25:54;15.5;;;6.9;;
68375;SDS011;55318;52.068;5.188;2023-02-11T06:27:37;15.1;;;5.5;;
68375;SDS011;55318;52.068;5.188;2023-02-11T06:29:14;14.4;;;5.6;;
68375;SDS011;55318;52.068;5.188;2023-02-11T06:32:27;12.2;;;5.7;;
68375;SDS011;55318;52.068;5.188;2023-02-11T06:34:04;18.2;;;6.5;;
68375;SDS011;55318;52.068;5.188;2023-02-11T06:35:40;13.0;;;5.4;;
68375;SDS011;55318;52.068;5.188;2023-02-11T06:38:52;17.7;;;6.9;;
68375;SDS011;55318;52.068;5.188;2023-02-11T06:40:29;13.5;;;5.6;;
68375;SDS011;55318;52.068;5.188;2023-02-11T06:42:06;15.7;;;7.3;;
68375;SDS011;55318;52.068;5.188;2023-02-11T06:45:19;19.0;;;7.0;;
68375;SDS011;55318;52.068;5.188;2023-02-11T06:46:56;14.4;;;6.9;;
68375;SDS011;55318;52.068;5.188;2023-02-11T06:48:32;21.1;;;7.0;;
68375;SDS011;55318;52.068;5.188;2023-02-11T06:50:11;25.9;;;6.9;;
68375;SDS011;55318;52.068;5.188;2023-02-11T06:53:25;16.7;;;6.4;;
68375;SDS011;55318;52.068;5.188;2023-02-11T06:55:01;12.7;;;6.4;;
68375;SDS011;55318;52.068;5.188;2023-02-11T06:56:38;14.7;;;6.8;;
68375;SDS011;55318;52.068;5.188;2023-02-11T06:59:52;14.6;;;6.4;;
68375;SDS011;55318;52.068;5.188;2023-02-11T07:01:28;12.9;;;5.5;;
68375;SDS011;55318;52.068;5.188;2023-02-11T07:03:05;16.7;;;6.3;;
68375;SDS011;55318;52.068;5.188;2023-02-11T07:04:41;14.4;;;7.3;;
68375;SDS011;55318;52.068;5.188;2023-02-11T07:07:56;13.9;;;6.6;;
68375;SDS011;55318;52.068;5.188;2023-02-11T07:09:32;14.1;;;6.6;;
68375;SDS011;55318;52.068;5.188;2023-02-11T07:11:09;17.5;;;8.2;;
68375;SDS011;55318;52.068;5.188;2023-02-11T07:14:23;18.8;;;6.9;;
68375;SDS011;55318;52.068;5.188;2023-02-11T07:16:02;21.5;;;7.0;;
68375;SDS011;55318;52.068;5.188;2023-02-11T07:17:41;14.9;;;6.7;;
68375;SDS011;55318;52.068;5.188;2023-02-11T07:20:53;14.7;;;7.5;;
68375;SDS011;55318;52.068;5.188;2023-02-11T07:22:30;14.8;;;6.8;;
68375;SDS011;55318;52.068;5.188;2023-02-11T07:24:06;13.6;;;7.7;;
68375;SDS011;55318;52.068;5.188;2023-02-11T07:25:44;16.2;;;6.9;;
68375;SDS011;55318;52.068;5.188;2023-02-11T07:28:57;14.4;;;7.2;;
68375;SDS011;55318;52.068;5.188;2023-02-11T07:30:33;15.4;;;6.7;;
68375;SDS011;55318;52.068;5.188;2023-02-11T07:32:11;17.5;;;7.4;;
68375;SDS011;55318;52.068;5.188;2023-02-11T07:35:24;13.1;;;7.0;;
68375;SDS011;55318;52.068;5.188;2023-02-11T07:37:00;17.91;;;7.5;;
68375;SDS011;55318;52.068;5.188;2023-02-11T07:38:37;16.61;;;7.1;;
68375;SDS011;55318;52.068;5.188;2023-02-11T07:41:50;22.6;;;8.4;;
68375;SDS011;55318;52.068;5.188;2023-02-11T07:43:27;17.11;;;7.6;;
68375;SDS011;55318;52.068;5.188;2023-02-11T07:45:03;14.1;;;7.0;;
68375;SDS011;55318;52.068;5.188;2023-02-11T07:46:43;14.0;;;7.9;;
68375;SDS011;55318;52.068;5.188;2023-02-11T07:49:55;14.8;;;7.6;;
68375;SDS011;55318;52.068;5.188;2023-02-11T07:51:31;20.41;;;7.1;;
68375;SDS011;55318;52.068;5.188;2023-02-11T07:53:08;14.7;;;7.0;;
68375;SDS011;55318;52.068;5.188;2023-02-11T07:56:22;18.5;;;7.8;;
68375;SDS011;55318;52.068;5.188;2023-02-11T07:58:00;18.8;;;8.31;;
68375;SDS011;55318;52.068;5.188;2023-02-11T07:59:36;14.9;;;7.2;;
68375;SDS011;55318;52.068;5.188;2023-02-11T08:01:13;12.2;;;7.3;;
68375;SDS011;55318;52.068;5.188;2023-02-11T08:04:28;22.1;;;7.8;;
68375;SDS011;55318;52.068;5.188;2023-02-11T08:06:05;18.5;;;8.0;;
68375;SDS011;55318;52.068;5.188;2023-02-11T08:07:42;17.61;;;7.9;;
68375;SDS011;55318;52.068;5.188;2023-02-11T08:10:54;16.11;;;6.7;;
68375;SDS011;55318;52.068;5.188;2023-02-11T08:12:31;18.3;;;6.4;;
68375;SDS011;55318;52.068;5.188;2023-02-11T08:14:07;15.3;;;7.8;;
68375;SDS011;55318;52.068;5.188;2023-02-11T08:17:21;13.2;;;7.0;;
68375;SDS011;55318;52.068;5.188;2023-02-11T08:18:59;15.4;;;7.0;;
68375;SDS011;55318;52.068;5.188;2023-02-11T08:20:36;15.5;;;7.4;;
68375;SDS011;55318;52.068;5.188;2023-02-11T08:22:13;17.0;;;8.1;;
68375;SDS011;55318;52.068;5.188;2023-02-11T08:25:26;22.9;;;8.2;;
68375;SDS011;55318;52.068;5.188;2023-02-11T08:27:02;13.4;;;7.0;;
68375;SDS011;55318;52.068;5.188;2023-02-11T08:28:39;16.0;;;7.1;;
68375;SDS011;55318;52.068;5.188;2023-02-11T08:31:54;14.6;;;6.8;;
68375;SDS011;55318;52.068;5.188;2023-02-11T08:33:30;17.7;;;8.31;;
68375;SDS011;55318;52.068;5.188;2023-02-11T08:35:07;20.41;;;7.1;;
68375;SDS011;55318;52.068;5.188;2023-02-11T08:36:44;13.6;;;7.5;;
68375;SDS011;55318;52.068;5.188;2023-02-11T08:39:57;15.0;;;7.5;;
68375;SDS011;55318;52.068;5.188;2023-02-11T08:41:34;14.0;;;7.2;;
68375;SDS011;55318;52.068;5.188;2023-02-11T08:43:10;17.91;;;8.0;;
68375;SDS011;55318;52.068;5.188;2023-02-11T08:46:22;21.6;;;8.1;;
68375;SDS011;55318;52.068;5.188;2023-02-11T08:48:00;18.5;;;7.3;;
68375;SDS011;55318;52.068;5.188;2023-02-11T08:49:36;14.8;;;6.8;;
68375;SDS011;55318;52.068;5.188;2023-02-11T08:52:52;14.8;;;7.7;;
68375;SDS011;55318;52.068;5.188;2023-02-11T08:54:28;15.6;;;8.1;;
68375;SDS011;55318;52.068;5.188;2023-02-11T08:56:07;14.7;;;7.1;;
68375;SDS011;55318;52.068;5.188;2023-02-11T08:57:45;12.2;;;6.4;;
68375;SDS011;55318;52.068;5.188;2023-02-11T09:00:58;16.8;;;6.7;;
68375;SDS011;55318;52.068;5.188;2023-02-11T09:02:34;15.7;;;7.2;;
68375;SDS011;55318;52.068;5.188;2023-02-11T09:04:10;17.11;;;8.31;;
68375;SDS011;55318;52.068;5.188;2023-02-11T09:07:25;21.6;;;8.0;;
68375;SDS011;55318;52.068;5.188;2023-02-11T09:09:03;11.4;;;6.9;;
68375;SDS011;55318;52.068;5.188;2023-02-11T09:10:39;18.3;;;8.0;;
68375;SDS011;55318;52.068;5.188;2023-02-11T09:13:51;20.11;;;8.5;;
68375;SDS011;55318;52.068;5.188;2023-02-11T09:15:27;16.61;;;8.71;;
68375;SDS011;55318;52.068;5.188;2023-02-11T09:17:04;15.9;;;7.3;;
68375;SDS011;55318;52.068;5.188;2023-02-11T09:18:41;14.3;;;8.0;;
68375;SDS011;55318;52.068;5.188;2023-02-11T09:21:54;15.6;;;7.9;;
68375;SDS011;55318;52.068;5.188;2023-02-11T09:23:33;20.41;;;8.2;;
68375;SDS011;55318;52.068;5.188;2023-02-11T09:25:10;18.5;;;8.71;;
68375;SDS011;55318;52.068;5.188;2023-02-11T09:28:25;15.0;;;7.4;;
68375;SDS011;55318;52.068;5.188;2023-02-11T09:30:01;15.5;;;8.2;;
68375;SDS011;55318;52.068;5.188;2023-02-11T09:31:38;20.3;;;9.4;;
68375;SDS011;55318;52.068;5.188;2023-02-11T09:33:14;20.9;;;8.31;;
68375;SDS011;55318;52.068;5.188;2023-02-11T09:36:28;19.3;;;8.1;;
68375;SDS011;55318;52.068;5.188;2023-02-11T09:38:06;18.11;;;8.81;;
68375;SDS011;55318;52.068;5.188;2023-02-11T09:39:45;15.3;;;8.2;;
68375;SDS011;55318;52.068;5.188;2023-02-11T09:43:43;12.5;;;7.2;;
68375;SDS011;55318;52.068;5.188;2023-02-11T09:47:02;14.1;;;6.8;;
68375;SDS011;55318;52.068;5.188;2023-02-11T09:48:43;14.2;;;7.1;;
68375;SDS011;55318;52.068;5.188;2023-02-11T09:50:23;16.0;;;8.4;;
68375;SDS011;55318;52.068;5.188;2023-02-11T09:52:05;12.7;;;7.3;;
68375;SDS011;55318;52.068;5.188;2023-02-11T09:55:31;13.3;;;7.7;;
68375;SDS011;55318;52.068;5.188;2023-02-11T09:57:10;23.0;;;8.71;;
68375;SDS011;55318;52.068;5.188;2023-02-11T09:58:47;17.3;;;8.6;;
68375;SDS011;55318;52.068;5.188;2023-02-11T10:02:08;15.9;;;8.1;;
68375;SDS011;55318;52.068;5.188;2023-02-11T10:03:56;14.4;;;7.6;;
68375;SDS011;55318;52.068;5.188;2023-02-11T10:05:42;16.2;;;8.0;;
68375;SDS011;55318;52.068;5.188;2023-02-11T10:07:35;14.3;;;6.9;;
68375;SDS011;55318;52.068;5.188;2023-02-11T10:09:37;19.0;;;9.6;;
68375;SDS011;55318;52.068;5.188;2023-02-11T10:11:29;12.6;;;7.1;;
68375;SDS011;55318;52.068;5.188;2023-02-11T10:13:22;17.2;;;8.2;;
68375;SDS011;55318;52.068;5.188;2023-02-11T10:15:17;17.91;;;8.5;;
68375;SDS011;55318;52.068;5.188;2023-02-11T10:19:04;14.9;;;8.1;;
68375;SDS011;55318;52.068;5.188;2023-02-11T10:20:58;12.7;;;7.1;;
68375;SDS011;55318;52.068;5.188;2023-02-11T10:22:49;15.4;;;7.4;;
68375;SDS011;55318;52.068;5.188;2023-02-11T10:24:28;15.3;;;7.4;;
68375;SDS011;55318;52.068;5.188;2023-02-11T10:26:09;13.8;;;7.2;;
68375;SDS011;55318;52.068;5.188;2023-02-11T10:27:48;15.0;;;7.2;;
68375;SDS011;55318;52.068;5.188;2023-02-11T10:31:15;14.4;;;6.7;;
68375;SDS011;55318;52.068;5.188;2023-02-11T10:32:58;14.8;;;6.7;;
68375;SDS011;55318;52.068;5.188;2023-02-11T10:34:38;13.4;;;7.8;;
68375;SDS011;55318;52.068;5.188;2023-02-11T10:36:17;16.3;;;8.81;;
68375;SDS011;55318;52.068;5.188;2023-02-11T10:39:31;14.6;;;6.9;;
68375;SDS011;55318;52.068;5.188;2023-02-11T10:41:08;13.7;;;6.2;;
68375;SDS011;55318;52.068;5.188;2023-02-11T10:42:49;15.2;;;7.1;;
68375;SDS011;55318;52.068;5.188;2023-02-11T10:44:29;12.3;;;6.7;;
68375;SDS011;55318;52.068;5.188;2023-02-11T10:47:54;18.41;;;8.71;;
68375;SDS011;55318;52.068;5.188;2023-02-11T10:49:33;14.1;;;7.3;;
68375;SDS011;55318;52.068;5.188;2023-02-11T10:51:14;12.6;;;6.8;;
68375;SDS011;55318;52.068;5.188;2023-02-11T10:52:58;11.8;;;6.8;;
68375;SDS011;55318;52.068;5.188;2023-02-11T10:56:51;14.8;;;6.3;;
68375;SDS011;55318;52.068;5.188;2023-02-11T10:58:35;16.11;;;7.2;;
68375;SDS011;55318;52.068;5.188;2023-02-11T11:00:22;15.1;;;7.3;;
68375;SDS011;55318;52.068;5.188;2023-02-11T11:02:17;12.6;;;7.2;;
68375;SDS011;55318;52.068;5.188;2023-02-11T11:03:58;15.3;;;7.6;;
68375;SDS011;55318;52.068;5.188;2023-02-11T11:05:36;12.0;;;6.6;;
68375;SDS011;55318;52.068;5.188;2023-02-11T11:07:23;16.61;;;7.0;;
68375;SDS011;55318;52.068;5.188;2023-02-11T11:10:43;15.8;;;6.4;;
68375;SDS011;55318;52.068;5.188;2023-02-11T11:12:25;13.8;;;6.4;;
68375;SDS011;55318;52.068;5.188;2023-02-11T11:14:12;10.7;;;5.8;;
68375;SDS011;55318;52.068;5.188;2023-02-11T11:16:06;12.6;;;6.1;;
68375;SDS011;55318;52.068;5.188;2023-02-11T11:18:13;10.6;;;5.3;;
68375;SDS011;55318;52.068;5.188;2023-02-11T11:21:28;10.4;;;5.4;;
68375;SDS011;55318;52.068;5.188;2023-02-11T11:23:13;8.81;;;5.5;;
68375;SDS011;55318;52.068;5.188;2023-02-11T11:24:54;11.0;;;6.6;;
68375;SDS011;55318;52.068;5.188;2023-02-11T11:26:38;12.4;;;5.8;;
68375;SDS011;55318;52.068;5.188;2023-02-11T11:28:18;12.4;;;6.5;;
68375;SDS011;55318;52.068;5.188;2023-02-11T11:31:44;9.6;;;5.5;;
68375;SDS011;55318;52.068;5.188;2023-02-11T11:33:24;11.0;;;5.5;;
68375;SDS011;55318;52.068;5.188;2023-02-11T11:35:06;9.31;;;5.5;;
68375;SDS011;55318;52.068;5.188;2023-02-11T11:36:59;13.5;;;5.6;;
68375;SDS011;55318;52.068;5.188;2023-02-11T11:38:49;10.6;;;5.4;;
68375;SDS011;55318;52.068;5.188;2023-02-11T11:42:21;9.71;;;5.7;;
68375;SDS011;55318;52.068;5.188;2023-02-11T11:44:02;9.4;;;5.3;;
68375;SDS011;55318;52.068;5.188;2023-02-11T11:45:54;11.9;;;6.5;;
68375;SDS011;55318;52.068;5.188;2023-02-11T11:47:34;14.7;;;6.6;;
68375;SDS011;55318;52.068;5.188;2023-02-11T11:49:19;12.3;;;6.0;;
68375;SDS011;55318;52.068;5.188;2023-02-11T11:52:42;8.6;;;4.5;;
68375;SDS011;55318;52.068;5.188;2023-02-11T11:54:26;9.4;;;5.3;;
68375;SDS011;55318;52.068;5.188;2023-02-11T11:56:08;9.81;;;4.5;;
68375;SDS011;55318;52.068;5.188;2023-02-11T11:57:49;10.5;;;5.8;;
68375;SDS011;55318;52.068;5.188;2023-02-11T12:01:07;14.8;;;5.3;;
68375;SDS011;55318;52.068;5.188;2023-02-11T12:03:03;10.21;;;5.8;;
68375;SDS011;55318;52.068;5.188;2023-02-11T12:06:09;10.4;;;5.0;;
68375;SDS011;55318;52.068;5.188;2023-02-11T12:09:51;9.5;;;5.2;;
68375;SDS011;55318;52.068;5.188;2023-02-11T12:11:55;9.81;;;4.7;;
68375;SDS011;55318;52.068;5.188;2023-02-11T12:14:15;11.6;;;5.5;;
68375;SDS011;55318;52.068;5.188;2023-02-11T12:16:04;10.6;;;5.6;;
68375;SDS011;55318;52.068;5.188;2023-02-11T12:17:58;11.7;;;6.1;;
68375;SDS011;55318;52.068;5.188;2023-02-11T12:20:04;9.31;;;4.7;;
68375;SDS011;55318;52.068;5.188;2023-02-11T12:21:55;12.2;;;4.91;;
68375;SDS011;55318;52.068;5.188;2023-02-11T12:23:44;9.6;;;5.4;;
68375;SDS011;55318;52.068;5.188;2023-02-11T12:25:36;6.8;;;3.7;;
68375;SDS011;55318;52.068;5.188;2023-02-11T12:27:34;5.6;;;3.2;;
68375;SDS011;55318;52.068;5.188;2023-02-11T12:29:25;6.7;;;3.4;;
68375;SDS011;55318;52.068;5.188;2023-02-11T12:31:14;5.3;;;2.8;;
68375;SDS011;55318;52.068;5.188;2023-02-11T12:34:55;4.7;;;2.21;;
68375;SDS011;55318;52.068;5.188;2023-02-11T12:37:08;4.61;;;2.6;;
68375;SDS011;55318;52.068;5.188;2023-02-11T12:39:03;4.7;;;2.5;;
68375;SDS011;55318;52.068;5.188;2023-02-11T12:40:53;6.6;;;2.9;;
68375;SDS011;55318;52.068;5.188;2023-02-11T12:43:44;4.8;;;3.1;;
68375;SDS011;55318;52.068;5.188;2023-02-11T12:45:25;6.2;;;2.6;;
68375;SDS011;55318;52.068;5.188;2023-02-11T12:47:16;6.0;;;3.1;;
68375;SDS011;55318;52.068;5.188;2023-02-11T12:49:08;3.7;;;2.4;;
68375;SDS011;55318;52.068;5.188;2023-02-11T12:51:12;4.0;;;2.5;;
68375;SDS011;55318;52.068;5.188;2023-02-11T12:53:05;4.1;;;3.0;;
68375;SDS011;55318;52.068;5.188;2023-02-11T12:55:08;3.9;;;2.9;;
68375;SDS011;55318;52.068;5.188;2023-02-11T12:56:54;7.1;;;3.4;;
68375;SDS011;55318;52.068;5.188;2023-02-11T12:58:36;7.1;;;2.7;;
68375;SDS011;55318;52.068;5.188;2023-02-11T13:01:54;4.8;;;2.4;;